Game Details

[ Leader Board ] [ Players ] [ Opponents ] [ Guilds ] [ Areas ]

Game Details for: beef

Game Progress

Quest Completed on Day
Mushroom Stew 8

Full Telemetry

Time Game Day Game Hour Game Minute Type Details Value Extra Zone X Y Credits Guild
5/6/2020 11:50:36 PM 9 12 32 Train Speed 2 Village1 5 8 71 None
5/6/2020 11:50:44 PM 9 14 32 Train Accuracy 2 Village1 5 8 39 None
5/6/2020 11:50:59 PM 9 14 33 Save 0 2 Village1 11 8 39 None
5/7/2020 3:48:58 PM 10 11 47 Daily beef 876 Village1 10 27 102 None
5/7/2020 3:49:14 PM 11 0 54 Daily beef 876 Village1 6 26 120 None
5/7/2020 3:50:43 PM 11 14 16 Combat Lv 1 Wasp 0 Win MushroomRiver 37 8 149 None
5/7/2020 3:52:25 PM 11 14 30 Combat Lv 1 Wasp 0 Win MushroomRiver 15 19 224 None
5/7/2020 3:56:12 PM 12 8 56 Daily beef 876 Village1 10 27 285 None
5/7/2020 3:58:57 PM 12 9 20 Arena Win 1 Village1 10 7 297 None
5/7/2020 3:58:57 PM 12 9 20 Combat Lv 1 Worg 0 Win Village1 10 7 272 None
5/7/2020 3:59:04 PM 12 12 21 Train Tech 2 Village1 5 8 265 None
5/7/2020 4:00:05 PM 12 12 22 Combat Lv 3 Wasp 0 Die Village1 10 7 265 None
5/7/2020 4:00:05 PM 12 12 22 Arena Loss 1 Village1 10 7 271 None
5/7/2020 4:02:12 PM 13 8 11 Daily beef 896 Village1 10 27 91 None
5/7/2020 4:04:02 PM 13 8 25 Arena Win 2 Village1 10 7 146 None
5/7/2020 4:04:02 PM 13 8 25 Combat Lv 3 Wasp 0 Win Village1 10 7 109 None
5/7/2020 4:05:22 PM 13 9 25 Combat Lv 2 Worg 0 Win Village1 10 7 182 None
5/7/2020 4:05:22 PM 13 9 25 Arena Win 3 Village1 10 7 231 None
5/7/2020 4:05:43 PM 13 12 46 Train Intelligence 2 Village1 4 9 187 None
5/7/2020 4:05:58 PM 13 12 46 Equip Kinetic Field 133 Village1 4 9 187 None
5/7/2020 4:06:52 PM 13 12 47 Combat Lv 3 Slime Mold 0 Die Village1 10 7 187 None
5/7/2020 4:06:52 PM 13 12 47 Arena Loss 3 Village1 10 7 205 None
5/7/2020 4:08:48 PM 13 14 14 Equip Fine Cloth Armor 148 Village1 22 25 47 None
5/7/2020 4:09:23 PM 14 4 22 Daily beef 1186 Village1 6 26 111 None
5/7/2020 4:10:21 PM 15 4 42 Daily beef 1186 Village1 10 27 142 None
5/7/2020 4:12:13 PM 15 8 59 Arena Win 4 Village1 10 7 268 None
5/7/2020 4:12:13 PM 15 8 59 Combat Lv 3 Slime Mold 0 Win Village1 10 7 207 None
5/7/2020 4:14:01 PM 15 10 2 Combat Lv 4 Wasp 0 Die Village1 10 7 268 None
5/7/2020 4:14:01 PM 15 10 2 Arena Loss 4 Village1 10 7 292 None
5/7/2020 4:15:04 PM 15 11 29 Equip Fine Kinetic Field 208 Village1 22 25 120 None